Flight Track Log - Related Links

Times and Time Zones

All times are in EDT time to prevent confusion due to time zone crossing. See the CES2279 flight status page for this flight to view local times or setup timezone preferences in your user account.

Time Position Orientation Groundspeed Altitude Reporting Facility
EDT Latitude Longitude Course Direction KTS MPH feet Rate Location/Type
Sun 06:01:00 AM 36.5101 97.9681 271° West  Level Estimated
Sun 06:02:00 AM 36.5077 97.8581 268° West  Level Estimated
Sun 06:03:00 AM 36.5052 97.7480 268° West  Level Estimated
Sun 06:04:00 AM 36.5026 97.6379 268° West  Level Estimated
Sun 06:05:00 AM 36.4999 97.5279 268° West  Level Estimated
Sun 06:06:00 AM 36.4971 97.4179 268° West  Level Estimated
Sun 06:07:00 AM 36.4942 97.3078 268° West  Level Estimated
Sun 06:08:00 AM 36.4912 97.1978 268° West  Level Estimated
Sun 06:09:00 AM 36.4881 97.0878 268° West  Level Estimated
Sun 06:10:00 AM 36.4849 96.9778 268° West  Level Estimated
Sun 06:11:00 AM 36.4816 96.8678 268° West  Level Estimated
Sun 06:12:00 AM 36.4782 96.7578 268° West  Level Estimated
Sun 06:13:00 AM 36.4747 96.6479 268° West  Level Estimated
Sun 06:14:00 AM 36.4711 96.5379 268° West  Level Estimated
Sun 06:15:00 AM 36.4674 96.4280 268° West  Level Estimated
Sun 06:16:00 AM 36.4636 96.3180 268° West  Level Estimated
Sun 06:17:00 AM 36.4597 96.2081 268° West  Level Estimated
Sun 06:18:00 AM 36.4557 96.0982 267° West  Level Estimated
Sun 06:19:00 AM 36.4515 95.9883 267° West  Level Estimated
Sun 06:20:00 AM 36.4473 95.8784 267° West  Level Estimated
Sun 06:21:00 AM 36.4430 95.7685 267° West  Level Estimated
Sun 06:22:00 AM 36.4386 95.6586 267° West  Level Estimated
Sun 06:23:00 AM 36.4341 95.5488 267° West  Level Estimated
Sun 06:24:00 AM 36.4295 95.4389 267° West  Level Estimated
Sun 06:25:00 AM 36.4248 95.3291 267° West  Level Estimated
Sun 06:26:00 AM 36.4200 95.2193 267° West  Level Estimated
Sun 06:27:00 AM 36.4151 95.1094 267° West  Level Estimated
Sun 06:28:00 AM 36.4100 94.9996 267° West  Level Estimated
Sun 06:29:00 AM 36.4049 94.8899 267° West  Level Estimated
Sun 06:30:00 AM 36.4000 94.7861 267° West  Level Estimated
Sun 06:31:00 AM 36.4000 94.7861 90° East  Level Estimated
Sun 06:32:00 AM 36.4000 94.7861 90° East  Level Estimated
Sun 06:33:00 AM 36.4000 94.7861 90° East  Level Estimated
Sun 06:34:00 AM 36.4000 94.7861 90° East  Level Estimated
Sun 06:35:00 AM 36.4000 94.7861 90° East  Level Estimated
Sun 06:36:00 AM 36.4000 94.7861 90° East  Level Estimated

Login

Don't have an account? Register now (free) for customized features, flight alerts, and more!